createdAt,value
2017-08-26T09:17:45.058Z,57.8
2017-08-26T09:28:01.653Z,56.9
2017-08-26T09:38:17.909Z,56.8
2017-08-26T09:48:35.119Z,54.4
2017-08-26T09:58:51.226Z,51.7
2017-08-26T10:09:37.917Z,48.8
2017-08-26T10:19:54.264Z,47.3
2017-08-26T10:30:10.558Z,45.4
2017-08-26T10:40:26.599Z,44.2
2017-08-26T10:50:39.818Z,43.3
2017-08-26T11:00:56.083Z,42.0
2017-08-26T11:11:12.233Z,39.9
2017-08-26T11:21:28.853Z,39.4
2017-08-26T11:31:44.743Z,39.6
2017-08-26T11:42:00.952Z,39.0
2017-08-26T11:52:17.254Z,39.1
2017-08-26T12:02:34.423Z,39.3
2017-08-26T12:13:22.553Z,40.1
2017-08-26T12:24:12.264Z,40.1
2017-08-26T12:34:30.582Z,39.7
2017-08-26T12:45:21.355Z,41.1
2017-08-26T12:56:46.463Z,41.4
2017-08-26T13:07:16.668Z,42.6
2017-08-26T13:17:34.330Z,41.9
2017-08-26T13:27:50.605Z,43.9
2017-08-26T13:38:06.846Z,44.1
2017-08-26T13:48:24.150Z,44.9
2017-08-26T13:59:17.419Z,39.0
2017-08-26T14:09:33.140Z,40.9
2017-08-26T14:19:49.359Z,41.0
2017-08-26T14:30:05.980Z,44.1
2017-08-26T14:40:22.021Z,43.3
2017-08-26T14:50:37.930Z,43.2
2017-08-26T15:00:54.518Z,44.1
2017-08-26T15:11:10.336Z,44.5
2017-08-26T15:21:26.866Z,45.0
2017-08-26T15:31:42.985Z,45.4
2017-08-26T15:41:59.910Z,45.7
2017-08-26T15:52:15.356Z,45.9
2017-08-26T16:02:31.840Z,46.3
2017-08-26T16:12:49.725Z,46.5
2017-08-26T16:23:39.543Z,46.7
2017-08-26T16:33:56.157Z,46.9
2017-08-26T16:44:12.349Z,47.0
2017-08-26T16:54:58.884Z,46.3
2017-08-26T17:05:15.208Z,46.4
2017-08-26T17:15:31.686Z,46.8
2017-08-26T17:25:47.554Z,47.2
2017-08-26T17:36:34.303Z,47.5
2017-08-26T17:46:50.525Z,47.8
2017-08-26T17:57:06.731Z,48.3
2017-08-26T18:07:23.250Z,48.5
2017-08-26T18:17:39.154Z,48.4
2017-08-26T18:27:55.726Z,48.9
2017-08-26T18:38:11.796Z,49.2
2017-08-26T18:48:27.723Z,49.2
2017-08-26T18:58:44.105Z,49.6
2017-08-26T19:09:00.372Z,49.9
2017-08-26T19:19:16.542Z,50.4
2017-08-26T19:29:34.271Z,50.5
2017-08-26T19:39:49.887Z,51.0
2017-08-26T19:50:06.409Z,50.8
2017-08-26T20:00:22.307Z,51.0
2017-08-26T20:10:38.706Z,51.3
2017-08-26T20:20:54.712Z,51.2
2017-08-26T20:31:11.141Z,51.6
2017-08-26T20:41:27.289Z,51.7
2017-08-26T20:51:43.452Z,51.7
2017-08-26T21:02:00.108Z,51.6
2017-08-26T21:12:15.983Z,51.7
2017-08-26T21:22:32.254Z,51.8
2017-08-26T21:32:49.618Z,51.9
2017-08-26T21:43:37.929Z,51.9
2017-08-26T21:53:51.235Z,52.0
2017-08-26T22:04:07.509Z,52.1
2017-08-26T22:14:23.933Z,52.2
2017-08-26T22:24:40.165Z,52.3
2017-08-26T22:35:26.895Z,52.1
2017-08-26T22:45:43.081Z,52.1
2017-08-26T22:55:59.370Z,52.1
2017-08-26T23:06:15.455Z,52.2
2017-08-26T23:16:31.726Z,52.1
2017-08-26T23:26:48.003Z,51.9
2017-08-26T23:37:04.056Z,51.9
2017-08-26T23:47:52.000Z,52.0
2017-08-26T23:58:08.454Z,51.6
